sensor_id;sensor_type;location;lat;lon;timestamp;temperature;humidity
5711;DHT22;61291;52.524;13.422;2022-10-16T00:01:26;15.40;99.90
5711;DHT22;61291;52.524;13.422;2022-10-16T00:03:52;15.40;99.90
5711;DHT22;61291;52.524;13.422;2022-10-16T00:06:20;15.50;99.90
5711;DHT22;61291;52.524;13.422;2022-10-16T00:08:47;15.60;99.90
5711;DHT22;61291;52.524;13.422;2022-10-16T00:13:46;15.70;99.90
5711;DHT22;61291;52.524;13.422;2022-10-16T00:16:13;15.80;99.90
5711;DHT22;61291;52.524;13.422;2022-10-16T00:18:39;15.80;99.90
5711;DHT22;61291;52.524;13.422;2022-10-16T00:21:14;15.90;99.90
5711;DHT22;61291;52.524;13.422;2022-10-16T00:23:40;15.90;99.90
5711;DHT22;61291;52.524;13.422;2022-10-16T00:26:09;15.90;99.90
5711;DHT22;61291;52.524;13.422;2022-10-16T00:28:36;16.00;99.90
5711;DHT22;61291;52.524;13.422;2022-10-16T00:31:04;16.00;99.90
5711;DHT22;61291;52.524;13.422;2022-10-16T00:33:30;16.00;99.90
5711;DHT22;61291;52.524;13.422;2022-10-16T00:35:58;16.00;99.90
5711;DHT22;61291;52.524;13.422;2022-10-16T00:38:24;16.00;99.90
5711;DHT22;61291;52.524;13.422;2022-10-16T00:40:49;15.90;99.90
5711;DHT22;61291;52.524;13.422;2022-10-16T00:43:36;15.90;99.90
5711;DHT22;61291;52.524;13.422;2022-10-16T00:46:07;15.80;99.90
5711;DHT22;61291;52.524;13.422;2022-10-16T00:48:35;15.80;99.90
5711;DHT22;61291;52.524;13.422;2022-10-16T00:51:00;15.80;99.90
5711;DHT22;61291;52.524;13.422;2022-10-16T00:53:27;15.80;99.90
5711;DHT22;61291;52.524;13.422;2022-10-16T00:55:53;15.90;99.90
5711;DHT22;61291;52.524;13.422;2022-10-16T00:58:20;15.90;99.90
5711;DHT22;61291;52.524;13.422;2022-10-16T01:00:45;15.90;99.90
5711;DHT22;61291;52.524;13.422;2022-10-16T01:03:31;15.80;99.90
5711;DHT22;61291;52.524;13.422;2022-10-16T01:06:05;15.80;99.90
5711;DHT22;61291;52.524;13.422;2022-10-16T01:08:49;15.70;99.90
5711;DHT22;61291;52.524;13.422;2022-10-16T01:11:38;15.70;99.90
5711;DHT22;61291;52.524;13.422;2022-10-16T01:14:20;15.70;99.90
5711;DHT22;61291;52.524;13.422;2022-10-16T01:16:58;15.80;99.90
5711;DHT22;61291;52.524;13.422;2022-10-16T01:20:02;15.80;99.90
5711;DHT22;61291;52.524;13.422;2022-10-16T01:25:30;15.60;99.90
5711;DHT22;61291;52.524;13.422;2022-10-16T01:28:01;15.60;99.90
5711;DHT22;61291;52.524;13.422;2022-10-16T01:30:30;15.50;99.90
5711;DHT22;61291;52.524;13.422;2022-10-16T01:33:02;15.50;99.90
5711;DHT22;61291;52.524;13.422;2022-10-16T01:35:34;15.50;99.90
5711;DHT22;61291;52.524;13.422;2022-10-16T01:40:34;15.70;99.90
5711;DHT22;61291;52.524;13.422;2022-10-16T01:43:04;15.80;99.90
5711;DHT22;61291;52.524;13.422;2022-10-16T01:45:32;15.70;99.90
5711;DHT22;61291;52.524;13.422;2022-10-16T01:48:00;15.70;99.90
5711;DHT22;61291;52.524;13.422;2022-10-16T01:50:26;15.70;99.90
5711;DHT22;61291;52.524;13.422;2022-10-16T01:52:53;15.70;99.90
5711;DHT22;61291;52.524;13.422;2022-10-16T01:55:25;15.70;99.90
5711;DHT22;61291;52.524;13.422;2022-10-16T01:57:54;15.70;99.90
5711;DHT22;61291;52.524;13.422;2022-10-16T02:00:21;15.70;99.90
5711;DHT22;61291;52.524;13.422;2022-10-16T02:02:49;15.70;99.90
5711;DHT22;61291;52.524;13.422;2022-10-16T02:05:22;15.70;99.90
5711;DHT22;61291;52.524;13.422;2022-10-16T02:07:49;15.80;99.90
5711;DHT22;61291;52.524;13.422;2022-10-16T02:10:16;15.80;99.90
5711;DHT22;61291;52.524;13.422;2022-10-16T02:12:47;15.90;99.90
5711;DHT22;61291;52.524;13.422;2022-10-16T02:15:13;15.90;99.90
5711;DHT22;61291;52.524;13.422;2022-10-16T02:17:39;15.90;99.90
5711;DHT22;61291;52.524;13.422;2022-10-16T02:20:05;16.00;99.90
5711;DHT22;61291;52.524;13.422;2022-10-16T02:22:43;16.00;99.90
5711;DHT22;61291;52.524;13.422;2022-10-16T02:25:17;16.10;99.90
5711;DHT22;61291;52.524;13.422;2022-10-16T02:28:11;16.10;99.90
5711;DHT22;61291;52.524;13.422;2022-10-16T02:30:57;16.10;99.90
5711;DHT22;61291;52.524;13.422;2022-10-16T02:33:25;16.10;99.90
5711;DHT22;61291;52.524;13.422;2022-10-16T02:35:53;16.10;99.90
5711;DHT22;61291;52.524;13.422;2022-10-16T02:38:20;16.10;99.90
5711;DHT22;61291;52.524;13.422;2022-10-16T02:40:46;16.10;99.90
5711;DHT22;61291;52.524;13.422;2022-10-16T02:43:12;16.10;99.90
5711;DHT22;61291;52.524;13.422;2022-10-16T02:45:38;16.10;99.90
5711;DHT22;61291;52.524;13.422;2022-10-16T02:48:05;16.10;99.90
5711;DHT22;61291;52.524;13.422;2022-10-16T02:50:30;16.00;99.90
5711;DHT22;61291;52.524;13.422;2022-10-16T02:52:56;16.10;99.90
5711;DHT22;61291;52.524;13.422;2022-10-16T02:55:21;16.10;99.90
5711;DHT22;61291;52.524;13.422;2022-10-16T02:57:47;16.00;99.90
5711;DHT22;61291;52.524;13.422;2022-10-16T03:00:15;16.00;99.90
5711;DHT22;61291;52.524;13.422;2022-10-16T03:02:41;16.00;99.90
5711;DHT22;61291;52.524;13.422;2022-10-16T03:05:07;16.00;99.90
5711;DHT22;61291;52.524;13.422;2022-10-16T03:07:33;15.90;99.90
5711;DHT22;61291;52.524;13.422;2022-10-16T03:09:58;15.70;99.90
5711;DHT22;61291;52.524;13.422;2022-10-16T03:12:27;15.70;99.90
5711;DHT22;61291;52.524;13.422;2022-10-16T03:14:53;15.70;99.90
5711;DHT22;61291;52.524;13.422;2022-10-16T03:17:19;15.60;99.90
5711;DHT22;61291;52.524;13.422;2022-10-16T03:19:44;15.50;99.90
5711;DHT22;61291;52.524;13.422;2022-10-16T03:22:10;15.50;99.90
5711;DHT22;61291;52.524;13.422;2022-10-16T03:24:43;15.40;99.90
5711;DHT22;61291;52.524;13.422;2022-10-16T03:27:08;15.40;99.90
5711;DHT22;61291;52.524;13.422;2022-10-16T03:29:34;15.30;99.90
5711;DHT22;61291;52.524;13.422;2022-10-16T03:32:00;15.30;99.90
5711;DHT22;61291;52.524;13.422;2022-10-16T03:34:25;15.30;99.90
5711;DHT22;61291;52.524;13.422;2022-10-16T03:36:53;15.30;99.90
5711;DHT22;61291;52.524;13.422;2022-10-16T03:39:19;15.20;99.90
5711;DHT22;61291;52.524;13.422;2022-10-16T03:41:44;15.10;99.90
5711;DHT22;61291;52.524;13.422;2022-10-16T03:44:11;15.10;99.90
5711;DHT22;61291;52.524;13.422;2022-10-16T03:46:37;15.10;99.90
5711;DHT22;61291;52.524;13.422;2022-10-16T03:49:02;15.10;99.90
5711;DHT22;61291;52.524;13.422;2022-10-16T03:51:28;15.00;99.90
5711;DHT22;61291;52.524;13.422;2022-10-16T03:53:54;15.00;99.90
5711;DHT22;61291;52.524;13.422;2022-10-16T03:56:19;15.00;99.90
5711;DHT22;61291;52.524;13.422;2022-10-16T03:58:44;15.00;99.90
5711;DHT22;61291;52.524;13.422;2022-10-16T04:01:10;15.00;99.90
5711;DHT22;61291;52.524;13.422;2022-10-16T04:03:36;15.00;99.90
5711;DHT22;61291;52.524;13.422;2022-10-16T04:06:01;15.00;99.90
5711;DHT22;61291;52.524;13.422;2022-10-16T04:08:27;15.10;99.90
5711;DHT22;61291;52.524;13.422;2022-10-16T04:10:52;15.00;99.90
5711;DHT22;61291;52.524;13.422;2022-10-16T04:13:18;15.00;99.90
5711;DHT22;61291;52.524;13.422;2022-10-16T04:15:45;14.90;99.90
5711;DHT22;61291;52.524;13.422;2022-10-16T04:18:10;14.90;99.90
5711;DHT22;61291;52.524;13.422;2022-10-16T04:20:36;14.90;99.90
5711;DHT22;61291;52.524;13.422;2022-10-16T04:23:01;15.00;99.90
5711;DHT22;61291;52.524;13.422;2022-10-16T04:25:27;15.00;99.90
5711;DHT22;61291;52.524;13.422;2022-10-16T04:27:53;14.90;99.90
5711;DHT22;61291;52.524;13.422;2022-10-16T04:30:19;14.90;99.90
5711;DHT22;61291;52.524;13.422;2022-10-16T04:32:48;14.90;99.90
5711;DHT22;61291;52.524;13.422;2022-10-16T04:35:15;14.90;99.90
5711;DHT22;61291;52.524;13.422;2022-10-16T04:37:40;14.90;99.90
5711;DHT22;61291;52.524;13.422;2022-10-16T04:40:06;14.90;99.90
5711;DHT22;61291;52.524;13.422;2022-10-16T04:42:32;14.80;99.90
5711;DHT22;61291;52.524;13.422;2022-10-16T04:44:57;14.80;99.90
5711;DHT22;61291;52.524;13.422;2022-10-16T04:47:23;14.80;99.90
5711;DHT22;61291;52.524;13.422;2022-10-16T04:49:48;14.80;99.90
5711;DHT22;61291;52.524;13.422;2022-10-16T04:52:14;14.70;99.90
5711;DHT22;61291;52.524;13.422;2022-10-16T04:54:39;14.70;99.90
5711;DHT22;61291;52.524;13.422;2022-10-16T04:57:05;14.60;99.90
5711;DHT22;61291;52.524;13.422;2022-10-16T04:59:30;14.60;99.90
5711;DHT22;61291;52.524;13.422;2022-10-16T05:01:56;14.50;99.90
5711;DHT22;61291;52.524;13.422;2022-10-16T05:04:21;14.50;99.90
5711;DHT22;61291;52.524;13.422;2022-10-16T05:06:47;14.50;99.90
5711;DHT22;61291;52.524;13.422;2022-10-16T05:09:13;14.50;99.90
5711;DHT22;61291;52.524;13.422;2022-10-16T05:11:38;14.50;99.90
5711;DHT22;61291;52.524;13.422;2022-10-16T05:14:04;14.50;99.90
5711;DHT22;61291;52.524;13.422;2022-10-16T05:16:29;14.50;99.90
5711;DHT22;61291;52.524;13.422;2022-10-16T05:18:56;14.50;99.90
5711;DHT22;61291;52.524;13.422;2022-10-16T05:21:21;14.50;99.90
5711;DHT22;61291;52.524;13.422;2022-10-16T05:23:47;14.50;99.90
5711;DHT22;61291;52.524;13.422;2022-10-16T05:26:13;14.60;99.90
5711;DHT22;61291;52.524;13.422;2022-10-16T05:28:38;14.60;99.90
5711;DHT22;61291;52.524;13.422;2022-10-16T05:31:05;14.70;99.90
5711;DHT22;61291;52.524;13.422;2022-10-16T05:33:32;14.70;99.90
5711;DHT22;61291;52.524;13.422;2022-10-16T05:36:02;14.70;99.90
5711;DHT22;61291;52.524;13.422;2022-10-16T05:38:28;14.70;99.90
5711;DHT22;61291;52.524;13.422;2022-10-16T05:40:53;14.70;99.90
5711;DHT22;61291;52.524;13.422;2022-10-16T05:43:19;14.70;99.90
5711;DHT22;61291;52.524;13.422;2022-10-16T05:46:03;14.80;99.90
5711;DHT22;61291;52.524;13.422;2022-10-16T05:48:29;14.90;99.90
5711;DHT22;61291;52.524;13.422;2022-10-16T05:50:59;14.90;99.90
5711;DHT22;61291;52.524;13.422;2022-10-16T05:53:25;15.10;99.90
5711;DHT22;61291;52.524;13.422;2022-10-16T05:55:57;15.20;99.90
5711;DHT22;61291;52.524;13.422;2022-10-16T05:58:24;15.20;99.90
5711;DHT22;61291;52.524;13.422;2022-10-16T06:00:58;15.20;99.90
5711;DHT22;61291;52.524;13.422;2022-10-16T06:03:24;15.30;99.90
5711;DHT22;61291;52.524;13.422;2022-10-16T06:05:50;15.30;99.90
5711;DHT22;61291;52.524;13.422;2022-10-16T06:08:17;15.30;99.90
5711;DHT22;61291;52.524;13.422;2022-10-16T06:10:42;15.30;99.90
5711;DHT22;61291;52.524;13.422;2022-10-16T06:13:09;15.40;99.90
5711;DHT22;61291;52.524;13.422;2022-10-16T06:15:34;15.50;99.90
5711;DHT22;61291;52.524;13.422;2022-10-16T06:18:00;15.60;99.90
5711;DHT22;61291;52.524;13.422;2022-10-16T06:20:26;15.70;99.90
5711;DHT22;61291;52.524;13.422;2022-10-16T06:22:51;15.80;99.90
5711;DHT22;61291;52.524;13.422;2022-10-16T06:25:17;15.90;99.90
5711;DHT22;61291;52.524;13.422;2022-10-16T06:27:42;15.90;99.90
5711;DHT22;61291;52.524;13.422;2022-10-16T06:30:08;16.00;99.90
5711;DHT22;61291;52.524;13.422;2022-10-16T06:32:34;16.10;99.90
5711;DHT22;61291;52.524;13.422;2022-10-16T06:35:00;16.20;99.90
5711;DHT22;61291;52.524;13.422;2022-10-16T06:37:26;16.40;99.90
5711;DHT22;61291;52.524;13.422;2022-10-16T06:39:51;16.50;99.90
5711;DHT22;61291;52.524;13.422;2022-10-16T06:42:20;16.60;99.90
5711;DHT22;61291;52.524;13.422;2022-10-16T06:44:45;16.70;99.90
5711;DHT22;61291;52.524;13.422;2022-10-16T06:47:11;16.70;99.90
5711;DHT22;61291;52.524;13.422;2022-10-16T06:49:36;16.70;99.90
5711;DHT22;61291;52.524;13.422;2022-10-16T06:52:02;16.70;99.90
5711;DHT22;61291;52.524;13.422;2022-10-16T06:54:28;16.60;99.90
5711;DHT22;61291;52.524;13.422;2022-10-16T06:56:54;16.60;99.90
5711;DHT22;61291;52.524;13.422;2022-10-16T06:59:23;16.70;99.90
5711;DHT22;61291;52.524;13.422;2022-10-16T07:01:48;16.80;99.90
5711;DHT22;61291;52.524;13.422;2022-10-16T07:04:14;17.00;99.90
5711;DHT22;61291;52.524;13.422;2022-10-16T07:06:40;17.10;99.90
5711;DHT22;61291;52.524;13.422;2022-10-16T07:09:08;17.40;99.90
5711;DHT22;61291;52.524;13.422;2022-10-16T07:11:37;18.00;99.90
5711;DHT22;61291;52.524;13.422;2022-10-16T07:14:02;18.40;99.90
5711;DHT22;61291;52.524;13.422;2022-10-16T07:16:30;18.70;99.90
5711;DHT22;61291;52.524;13.422;2022-10-16T07:18:58;19.00;99.90
5711;DHT22;61291;52.524;13.422;2022-10-16T07:21:26;19.30;99.90
5711;DHT22;61291;52.524;13.422;2022-10-16T07:23:54;19.50;99.90
5711;DHT22;61291;52.524;13.422;2022-10-16T07:26:21;19.60;99.90
5711;DHT22;61291;52.524;13.422;2022-10-16T07:28:47;19.60;99.90
5711;DHT22;61291;52.524;13.422;2022-10-16T07:31:14;19.60;99.90
5711;DHT22;61291;52.524;13.422;2022-10-16T07:33:40;19.60;99.90
5711;DHT22;61291;52.524;13.422;2022-10-16T07:36:08;19.70;99.90
5711;DHT22;61291;52.524;13.422;2022-10-16T07:38:34;19.80;99.90
5711;DHT22;61291;52.524;13.422;2022-10-16T07:41:04;19.70;99.90
5711;DHT22;61291;52.524;13.422;2022-10-16T07:43:30;19.80;99.90
5711;DHT22;61291;52.524;13.422;2022-10-16T07:45:56;19.90;99.90
5711;DHT22;61291;52.524;13.422;2022-10-16T07:48:28;20.00;99.90
5711;DHT22;61291;52.524;13.422;2022-10-16T07:50:57;20.10;99.90
5711;DHT22;61291;52.524;13.422;2022-10-16T07:53:23;20.10;99.90
5711;DHT22;61291;52.524;13.422;2022-10-16T07:55:49;20.00;99.90
5711;DHT22;61291;52.524;13.422;2022-10-16T07:58:14;19.90;99.90
5711;DHT22;61291;52.524;13.422;2022-10-16T08:00:40;19.90;99.90
5711;DHT22;61291;52.524;13.422;2022-10-16T08:03:05;19.80;99.90
5711;DHT22;61291;52.524;13.422;2022-10-16T08:05:32;19.70;99.90
5711;DHT22;61291;52.524;13.422;2022-10-16T08:07:58;19.80;99.90
5711;DHT22;61291;52.524;13.422;2022-10-16T08:10:25;19.80;99.90
5711;DHT22;61291;52.524;13.422;2022-10-16T08:12:51;19.90;99.90
5711;DHT22;61291;52.524;13.422;2022-10-16T08:15:17;20.00;99.90
5711;DHT22;61291;52.524;13.422;2022-10-16T08:17:43;20.10;99.90
5711;DHT22;61291;52.524;13.422;2022-10-16T08:20:09;20.20;99.90
5711;DHT22;61291;52.524;13.422;2022-10-16T08:22:41;20.40;99.90
5711;DHT22;61291;52.524;13.422;2022-10-16T08:25:07;20.60;99.90
5711;DHT22;61291;52.524;13.422;2022-10-16T08:27:33;20.60;99.90
5711;DHT22;61291;52.524;13.422;2022-10-16T08:29:58;20.50;99.90
5711;DHT22;61291;52.524;13.422;2022-10-16T08:32:24;20.40;99.90
5711;DHT22;61291;52.524;13.422;2022-10-16T08:34:49;20.30;99.90
5711;DHT22;61291;52.524;13.422;2022-10-16T08:37:14;20.30;99.90
5711;DHT22;61291;52.524;13.422;2022-10-16T08:39:40;20.30;99.90
5711;DHT22;61291;52.524;13.422;2022-10-16T08:42:30;20.30;99.90
5711;DHT22;61291;52.524;13.422;2022-10-16T08:45:25;20.40;99.90
5711;DHT22;61291;52.524;13.422;2022-10-16T08:50:45;20.50;99.90
5711;DHT22;61291;52.524;13.422;2022-10-16T08:53:17;20.70;99.90
5711;DHT22;61291;52.524;13.422;2022-10-16T08:55:51;20.70;99.90
5711;DHT22;61291;52.524;13.422;2022-10-16T08:58:19;20.70;99.90
5711;DHT22;61291;52.524;13.422;2022-10-16T09:00:53;20.60;99.90
5711;DHT22;61291;52.524;13.422;2022-10-16T09:03:35;20.50;99.90
5711;DHT22;61291;52.524;13.422;2022-10-16T09:06:27;20.40;99.90
5711;DHT22;61291;52.524;13.422;2022-10-16T09:09:26;20.40;99.90
5711;DHT22;61291;52.524;13.422;2022-10-16T09:12:11;20.60;99.90
5711;DHT22;61291;52.524;13.422;2022-10-16T09:14:50;21.00;99.90
5711;DHT22;61291;52.524;13.422;2022-10-16T09:17:48;21.30;99.90
5711;DHT22;61291;52.524;13.422;2022-10-16T09:20:30;21.40;99.90
5711;DHT22;61291;52.524;13.422;2022-10-16T09:25:29;21.20;99.90
5711;DHT22;61291;52.524;13.422;2022-10-16T09:27:55;21.20;99.90
5711;DHT22;61291;52.524;13.422;2022-10-16T09:30:22;21.20;99.90
5711;DHT22;61291;52.524;13.422;2022-10-16T09:32:51;21.20;99.90
5711;DHT22;61291;52.524;13.422;2022-10-16T09:35:20;21.20;99.90
5711;DHT22;61291;52.524;13.422;2022-10-16T09:37:51;21.10;99.90
5711;DHT22;61291;52.524;13.422;2022-10-16T09:40:31;20.90;99.90
5711;DHT22;61291;52.524;13.422;2022-10-16T09:43:19;20.80;99.90
5711;DHT22;61291;52.524;13.422;2022-10-16T09:46:00;20.60;99.90
5711;DHT22;61291;52.524;13.422;2022-10-16T09:48:43;20.60;99.90
5711;DHT22;61291;52.524;13.422;2022-10-16T09:51:21;20.60;99.90
5711;DHT22;61291;52.524;13.422;2022-10-16T09:53:49;20.60;99.90
5711;DHT22;61291;52.524;13.422;2022-10-16T09:56:30;20.50;99.90
5711;DHT22;61291;52.524;13.422;2022-10-16T09:59:00;20.50;99.90
5711;DHT22;61291;52.524;13.422;2022-10-16T10:01:37;20.40;99.90
5711;DHT22;61291;52.524;13.422;2022-10-16T10:04:04;20.50;99.90
5711;DHT22;61291;52.524;13.422;2022-10-16T10:06:35;20.50;99.90
5711;DHT22;61291;52.524;13.422;2022-10-16T10:09:04;20.60;99.90
5711;DHT22;61291;52.524;13.422;2022-10-16T10:11:44;20.80;99.90
5711;DHT22;61291;52.524;13.422;2022-10-16T10:14:35;21.00;99.90
5711;DHT22;61291;52.524;13.422;2022-10-16T10:24:54;21.90;99.90
5711;DHT22;61291;52.524;13.422;2022-10-16T10:27:21;21.70;99.90
5711;DHT22;61291;52.524;13.422;2022-10-16T10:32:26;21.50;99.90
5711;DHT22;61291;52.524;13.422;2022-10-16T10:35:07;21.50;99.90
5711;DHT22;61291;52.524;13.422;2022-10-16T10:37:57;21.70;99.90
5711;DHT22;61291;52.524;13.422;2022-10-16T10:40:34;21.80;99.90
5711;DHT22;61291;52.524;13.422;2022-10-16T10:43:27;21.90;99.90
5711;DHT22;61291;52.524;13.422;2022-10-16T10:45:58;22.00;99.90
5711;DHT22;61291;52.524;13.422;2022-10-16T10:49:03;22.20;99.90
5711;DHT22;61291;52.524;13.422;2022-10-16T10:51:54;22.40;99.90
5711;DHT22;61291;52.524;13.422;2022-10-16T10:54:28;22.80;99.90
5711;DHT22;61291;52.524;13.422;2022-10-16T10:57:02;22.90;99.90
5711;DHT22;61291;52.524;13.422;2022-10-16T11:02:54;23.10;99.90
5711;DHT22;61291;52.524;13.422;2022-10-16T11:05:38;23.40;99.90
5711;DHT22;61291;52.524;13.422;2022-10-16T11:08:19;23.60;99.90
5711;DHT22;61291;52.524;13.422;2022-10-16T11:11:00;23.90;99.90
5711;DHT22;61291;52.524;13.422;2022-10-16T11:18:52;24.10;99.90
5711;DHT22;61291;52.524;13.422;2022-10-16T11:21:21;24.10;99.90
5711;DHT22;61291;52.524;13.422;2022-10-16T11:26:28;23.80;99.90
5711;DHT22;61291;52.524;13.422;2022-10-16T11:28:56;23.50;99.90
5711;DHT22;61291;52.524;13.422;2022-10-16T11:31:43;23.30;99.90
5711;DHT22;61291;52.524;13.422;2022-10-16T11:39:25;22.00;99.90
5711;DHT22;61291;52.524;13.422;2022-10-16T11:42:29;21.70;99.90
5711;DHT22;61291;52.524;13.422;2022-10-16T11:44:54;21.30;99.90
5711;DHT22;61291;52.524;13.422;2022-10-16T11:47:43;20.90;99.90
5711;DHT22;61291;52.524;13.422;2022-10-16T11:50:23;20.70;99.90
5711;DHT22;61291;52.524;13.422;2022-10-16T11:53:01;20.50;99.90
5711;DHT22;61291;52.524;13.422;2022-10-16T11:58:07;20.10;99.90
5711;DHT22;61291;52.524;13.422;2022-10-16T12:00:55;20.00;99.90
5711;DHT22;61291;52.524;13.422;2022-10-16T12:03:28;19.80;99.90
5711;DHT22;61291;52.524;13.422;2022-10-16T12:06:21;19.60;99.90
5711;DHT22;61291;52.524;13.422;2022-10-16T12:08:50;19.50;99.90
5711;DHT22;61291;52.524;13.422;2022-10-16T12:11:33;19.40;99.90
5711;DHT22;61291;52.524;13.422;2022-10-16T12:16:58;19.30;99.90
5711;DHT22;61291;52.524;13.422;2022-10-16T12:19:26;19.40;99.90
5711;DHT22;61291;52.524;13.422;2022-10-16T12:21:55;19.40;99.90
5711;DHT22;61291;52.524;13.422;2022-10-16T12:24:28;19.50;99.90
5711;DHT22;61291;52.524;13.422;2022-10-16T12:26:55;19.50;99.90
5711;DHT22;61291;52.524;13.422;2022-10-16T12:31:52;19.60;99.90
5711;DHT22;61291;52.524;13.422;2022-10-16T12:34:42;19.60;99.90
5711;DHT22;61291;52.524;13.422;2022-10-16T12:37:23;19.70;99.90
5711;DHT22;61291;52.524;13.422;2022-10-16T12:39:50;20.20;99.80
5711;DHT22;61291;52.524;13.422;2022-10-16T12:44:52;20.20;99.90
5711;DHT22;61291;52.524;13.422;2022-10-16T12:49:56;20.10;99.30
5711;DHT22;61291;52.524;13.422;2022-10-16T12:52:39;20.10;99.60
5711;DHT22;61291;52.524;13.422;2022-10-16T12:55:16;20.20;99.90
5711;DHT22;61291;52.524;13.422;2022-10-16T12:58:08;20.10;99.20
5711;DHT22;61291;52.524;13.422;2022-10-16T13:00:47;20.20;99.30
5711;DHT22;61291;52.524;13.422;2022-10-16T13:03:40;20.10;99.30
5711;DHT22;61291;52.524;13.422;2022-10-16T13:06:39;20.10;99.20
5711;DHT22;61291;52.524;13.422;2022-10-16T13:09:39;20.10;98.80
5711;DHT22;61291;52.524;13.422;2022-10-16T13:17:47;20.30;97.70
5711;DHT22;61291;52.524;13.422;2022-10-16T13:26:09;20.40;97.80
5711;DHT22;61291;52.524;13.422;2022-10-16T13:28:38;20.50;97.70
5711;DHT22;61291;52.524;13.422;2022-10-16T13:31:04;20.60;97.60
5711;DHT22;61291;52.524;13.422;2022-10-16T13:33:37;20.60;97.40
5711;DHT22;61291;52.524;13.422;2022-10-16T13:36:04;20.70;97.30
5711;DHT22;61291;52.524;13.422;2022-10-16T13:38:34;20.90;96.90
5711;DHT22;61291;52.524;13.422;2022-10-16T13:41:01;21.00;96.70
5711;DHT22;61291;52.524;13.422;2022-10-16T13:43:47;21.00;96.70
5711;DHT22;61291;52.524;13.422;2022-10-16T13:46:20;21.10;96.10
5711;DHT22;61291;52.524;13.422;2022-10-16T13:49:11;21.00;96.10
5711;DHT22;61291;52.524;13.422;2022-10-16T13:51:37;20.90;96.10
5711;DHT22;61291;52.524;13.422;2022-10-16T13:54:03;20.80;96.10
5711;DHT22;61291;52.524;13.422;2022-10-16T13:56:30;20.70;96.10
5711;DHT22;61291;52.524;13.422;2022-10-16T13:59:05;20.60;96.20
5711;DHT22;61291;52.524;13.422;2022-10-16T14:01:42;20.40;96.30
5711;DHT22;61291;52.524;13.422;2022-10-16T14:04:10;20.30;96.50
5711;DHT22;61291;52.524;13.422;2022-10-16T14:06:44;20.10;96.50
5711;DHT22;61291;52.524;13.422;2022-10-16T14:09:31;20.00;96.60
5711;DHT22;61291;52.524;13.422;2022-10-16T14:12:11;19.90;96.80
5711;DHT22;61291;52.524;13.422;2022-10-16T14:19:49;19.50;97.50
5711;DHT22;61291;52.524;13.422;2022-10-16T14:22:34;19.40;97.50
5711;DHT22;61291;52.524;13.422;2022-10-16T14:25:00;19.40;97.70
5711;DHT22;61291;52.524;13.422;2022-10-16T14:27:33;19.40;97.80
5711;DHT22;61291;52.524;13.422;2022-10-16T14:30:13;19.40;97.70
5711;DHT22;61291;52.524;13.422;2022-10-16T14:32:41;19.40;97.90
5711;DHT22;61291;52.524;13.422;2022-10-16T14:35:34;19.40;97.90
5711;DHT22;61291;52.524;13.422;2022-10-16T14:38:02;19.30;98.10
5711;DHT22;61291;52.524;13.422;2022-10-16T14:40:30;19.30;98.20
5711;DHT22;61291;52.524;13.422;2022-10-16T14:43:01;19.20;98.30
5711;DHT22;61291;52.524;13.422;2022-10-16T14:45:30;19.20;98.30
5711;DHT22;61291;52.524;13.422;2022-10-16T14:47:58;19.20;98.30
5711;DHT22;61291;52.524;13.422;2022-10-16T14:50:24;19.20;98.40
5711;DHT22;61291;52.524;13.422;2022-10-16T14:52:49;19.20;98.50
5711;DHT22;61291;52.524;13.422;2022-10-16T14:55:15;19.10;98.60
5711;DHT22;61291;52.524;13.422;2022-10-16T14:57:42;19.00;98.70
5711;DHT22;61291;52.524;13.422;2022-10-16T15:00:19;19.00;98.80
5711;DHT22;61291;52.524;13.422;2022-10-16T15:02:45;18.90;98.80
5711;DHT22;61291;52.524;13.422;2022-10-16T15:05:15;18.90;99.00
5711;DHT22;61291;52.524;13.422;2022-10-16T15:07:41;18.80;99.10
5711;DHT22;61291;52.524;13.422;2022-10-16T15:10:07;18.70;99.00
5711;DHT22;61291;52.524;13.422;2022-10-16T15:12:33;18.70;99.20
5711;DHT22;61291;52.524;13.422;2022-10-16T15:14:58;18.60;99.20
5711;DHT22;61291;52.524;13.422;2022-10-16T15:17:24;18.50;99.30
5711;DHT22;61291;52.524;13.422;2022-10-16T15:19:49;18.50;99.30
5711;DHT22;61291;52.524;13.422;2022-10-16T15:22:16;18.40;99.20
5711;DHT22;61291;52.524;13.422;2022-10-16T15:24:42;18.30;99.10
5711;DHT22;61291;52.524;13.422;2022-10-16T15:27:07;18.20;99.10
5711;DHT22;61291;52.524;13.422;2022-10-16T15:29:33;18.10;99.40
5711;DHT22;61291;52.524;13.422;2022-10-16T15:31:58;18.00;99.10
5711;DHT22;61291;52.524;13.422;2022-10-16T15:34:24;18.00;99.10
5711;DHT22;61291;52.524;13.422;2022-10-16T15:36:49;17.90;99.10
5711;DHT22;61291;52.524;13.422;2022-10-16T15:39:17;17.70;99.20
5711;DHT22;61291;52.524;13.422;2022-10-16T15:41:45;17.70;99.20
5711;DHT22;61291;52.524;13.422;2022-10-16T15:44:16;17.70;99.20
5711;DHT22;61291;52.524;13.422;2022-10-16T15:46:41;17.50;99.30
5711;DHT22;61291;52.524;13.422;2022-10-16T15:49:07;17.40;99.30
5711;DHT22;61291;52.524;13.422;2022-10-16T15:51:33;17.30;99.40
5711;DHT22;61291;52.524;13.422;2022-10-16T15:54:02;17.10;99.50
5711;DHT22;61291;52.524;13.422;2022-10-16T15:56:28;17.00;99.60
5711;DHT22;61291;52.524;13.422;2022-10-16T15:58:54;16.90;99.70
5711;DHT22;61291;52.524;13.422;2022-10-16T16:01:20;16.80;99.90
5711;DHT22;61291;52.524;13.422;2022-10-16T16:03:46;16.70;99.90
5711;DHT22;61291;52.524;13.422;2022-10-16T16:06:13;16.70;99.90
5711;DHT22;61291;52.524;13.422;2022-10-16T16:08:39;16.70;99.90
5711;DHT22;61291;52.524;13.422;2022-10-16T16:11:10;16.70;99.90
5711;DHT22;61291;52.524;13.422;2022-10-16T16:13:36;16.70;99.90
5711;DHT22;61291;52.524;13.422;2022-10-16T16:16:08;16.60;99.90
5711;DHT22;61291;52.524;13.422;2022-10-16T16:18:34;16.50;99.90
5711;DHT22;61291;52.524;13.422;2022-10-16T16:21:00;16.40;99.90
5711;DHT22;61291;52.524;13.422;2022-10-16T16:23:25;16.30;99.90
5711;DHT22;61291;52.524;13.422;2022-10-16T16:28:33;16.20;99.90
5711;DHT22;61291;52.524;13.422;2022-10-16T16:30:58;16.20;99.90
5711;DHT22;61291;52.524;13.422;2022-10-16T16:33:24;16.10;99.90
5711;DHT22;61291;52.524;13.422;2022-10-16T16:35:50;16.00;99.90
5711;DHT22;61291;52.524;13.422;2022-10-16T16:38:15;15.90;99.90
5711;DHT22;61291;52.524;13.422;2022-10-16T16:40:41;15.90;99.90
5711;DHT22;61291;52.524;13.422;2022-10-16T16:43:06;15.80;99.90
5711;DHT22;61291;52.524;13.422;2022-10-16T16:45:35;15.80;99.90
5711;DHT22;61291;52.524;13.422;2022-10-16T16:48:01;15.70;99.90
5711;DHT22;61291;52.524;13.422;2022-10-16T16:50:26;15.70;99.90
5711;DHT22;61291;52.524;13.422;2022-10-16T16:52:52;15.60;99.90
5711;DHT22;61291;52.524;13.422;2022-10-16T16:55:17;15.50;99.90
5711;DHT22;61291;52.524;13.422;2022-10-16T16:57:43;15.50;99.90
5711;DHT22;61291;52.524;13.422;2022-10-16T17:00:08;15.50;99.90
5711;DHT22;61291;52.524;13.422;2022-10-16T17:02:34;15.50;99.90